Time;durP1;ratioP1;P1;durP2;ratioP2;P2;SDS_P1;SDS_P2;PMS_P1;PMS_P2;Temp;Humidity;BMP_temperature;BMP_pressure;BME280_temperature;BME280_humidity;BME280_pressure;Samples;Min_cycle;Max_cycle;Signal;HPM_P1;HPM_P2
2022/12/22 03:28:03;;;;;;;8.35;6.53;;;11.80;99.90;;;;;;5091839;28;20207;-62
2022/12/22 03:30:29;;;;;;;10.93;6.88;;;11.80;99.90;;;;;;5091930;28;20184;-62
2022/12/22 03:32:55;;;;;;;9.13;5.85;;;11.70;99.90;;;;;;5091777;28;20189;-62
2022/12/22 03:35:20;;;;;;;7.50;5.53;;;11.80;99.90;;;;;;5091757;28;20230;-62
2022/12/22 03:37:46;;;;;;;8.07;6.43;;;11.80;99.90;;;;;;5092159;28;20226;-62
2022/12/22 03:40:12;;;;;;;7.57;6.40;;;11.80;99.90;;;;;;5089954;28;20180;-62
2022/12/22 03:48:06;;;;;;;10.65;6.47;;;11.70;99.90;;;;;;5089775;28;20989;-62
2022/12/22 03:50:32;;;;;;;10.43;6.10;;;11.70;99.90;;;;;;5091716;28;20173;-62
2022/12/22 03:52:57;;;;;;;6.50;4.70;;;11.70;99.90;;;;;;5091472;28;20283;-62
2022/12/22 03:55:23;;;;;;;7.80;5.78;;;11.70;99.90;;;;;;5066175;28;20193;-62
2022/12/22 03:57:48;;;;;;;9.70;5.88;;;11.70;99.90;;;;;;5092265;28;20193;-62
2022/12/22 04:00:15;;;;;;;8.60;6.13;;;11.70;99.90;;;;;;5091552;28;20639;-62
2022/12/22 04:02:40;;;;;;;7.93;5.43;;;11.70;99.90;;;;;;5085533;28;20188;-65
2022/12/22 04:05:06;;;;;;;5.97;4.20;;;11.80;99.90;;;;;;5089696;28;20193;-62
2022/12/22 04:07:32;;;;;;;5.85;4.07;;;11.80;99.90;;;;;;5090179;28;20177;-62
2022/12/22 04:12:53;;;;;;;5.00;3.25;;;11.80;99.90;;;;;;5091366;28;20196;-62
2022/12/22 04:15:24;;;;;;;6.80;3.33;;;11.80;99.90;;;;;;5086516;28;20182;-62
2022/12/22 04:17:50;;;;;;;2.90;2.70;;;11.80;99.90;;;;;;5089160;28;20176;-62
2022/12/22 04:20:16;;;;;;;3.97;2.97;;;11.80;99.90;;;;;;5102411;28;20766;-62
2022/12/22 04:22:42;;;;;;;4.97;3.22;;;11.80;99.90;;;;;;5087254;28;20243;-62
2022/12/22 04:25:08;;;;;;;3.72;3.08;;;11.90;99.90;;;;;;5091957;28;20188;-62
2022/12/22 04:27:34;;;;;;;5.28;3.75;;;11.90;99.90;;;;;;5091666;28;20188;-62
2022/12/22 04:29:59;;;;;;;5.63;3.90;;;11.90;99.90;;;;;;5072804;28;20192;-62
2022/12/22 04:32:25;;;;;;;9.38;5.55;;;11.80;99.90;;;;;;5091657;28;20647;-62
2022/12/22 04:34:50;;;;;;;7.85;5.68;;;11.80;99.90;;;;;;5088028;28;20185;-62
2022/12/22 04:37:16;;;;;;;13.40;7.25;;;11.90;99.90;;;;;;5091602;28;20185;-62
2022/12/22 04:39:42;;;;;;;9.50;5.97;;;11.80;99.90;;;;;;5093016;28;20188;-62
2022/12/22 04:42:07;;;;;;;10.15;7.15;;;11.70;99.90;;;;;;5095535;28;20184;-61
2022/12/22 04:44:33;;;;;;;10.32;6.55;;;11.60;99.90;;;;;;5093977;28;20205;-62
2022/12/22 04:46:59;;;;;;;12.38;7.15;;;11.50;99.90;;;;;;5094635;28;20647;-61
2022/12/22 04:49:25;;;;;;;11.18;6.50;;;11.40;99.90;;;;;;5091718;28;20272;-62
2022/12/22 04:51:50;;;;;;;11.30;7.32;;;11.40;99.90;;;;;;5091709;28;20267;-62
2022/12/22 04:54:16;;;;;;;12.30;7.00;;;11.50;99.90;;;;;;5094581;28;20195;-61
2022/12/22 04:56:42;;;;;;;12.57;9.00;;;11.50;99.90;;;;;;5094624;28;20177;-61
2022/12/22 04:59:07;;;;;;;21.67;10.35;;;11.60;99.90;;;;;;5088178;28;20196;-62
2022/12/22 05:01:33;;;;;;;22.02;12.68;;;11.50;99.90;;;;;;5093369;28;20184;-62
2022/12/22 05:03:59;;;;;;;28.95;13.77;;;11.50;99.90;;;;;;5076899;28;20659;-62
2022/12/22 05:06:24;;;;;;;18.70;10.95;;;11.50;99.90;;;;;;5081983;28;20197;-60
2022/12/22 05:08:50;;;;;;;15.95;9.38;;;11.60;99.90;;;;;;5073819;28;20189;-60
2022/12/22 05:11:16;;;;;;;13.18;7.95;;;11.60;99.90;;;;;;5093587;28;20189;-61
2022/12/22 05:13:41;;;;;;;13.52;8.10;;;11.60;99.90;;;;;;5092034;28;20242;-61
2022/12/22 05:16:10;;;;;;;12.48;7.60;;;11.50;99.90;;;;;;5087215;28;20189;-61
2022/12/22 05:18:37;;;;;;;12.68;8.93;;;11.50;99.90;;;;;;5087312;28;20177;-61
2022/12/22 05:21:09;;;;;;;14.32;8.43;;;11.50;99.90;;;;;;5076777;28;20620;-61
2022/12/22 05:23:35;;;;;;;13.50;6.97;;;11.40;99.90;;;;;;5093553;28;20658;-61
2022/12/22 05:26:01;;;;;;;12.23;7.40;;;11.50;99.90;;;;;;5094768;28;20184;-60
2022/12/22 05:28:26;;;;;;;14.25;8.20;;;11.50;99.90;;;;;;5093526;28;20254;-63
2022/12/22 05:30:52;;;;;;;14.88;7.93;;;11.50;99.90;;;;;;5087003;28;20216;-60
2022/12/22 05:33:19;;;;;;;12.50;6.82;;;11.50;99.90;;;;;;5094234;28;20205;-61
2022/12/22 05:35:44;;;;;;;14.27;7.47;;;11.40;99.90;;;;;;5094583;28;20639;-62
2022/12/22 05:38:10;;;;;;;16.27;7.15;;;11.40;99.90;;;;;;5093751;28;20190;-62
2022/12/22 05:40:36;;;;;;;16.35;7.22;;;11.40;99.90;;;;;;5085440;28;20185;-62
2022/12/22 05:43:01;;;;;;;15.15;7.30;;;11.40;99.90;;;;;;5087987;28;20180;-62
2022/12/22 05:45:27;;;;;;;19.83;9.45;;;11.30;99.90;;;;;;5093481;28;20227;-63
2022/12/22 05:47:53;;;;;;;18.73;8.30;;;11.30;99.90;;;;;;5094330;28;20213;-61
2022/12/22 05:50:21;;;;;;;20.02;8.52;;;11.30;99.90;;;;;;5073959;28;20180;-61
2022/12/22 05:52:47;;;;;;;22.77;10.15;;;11.30;99.90;;;;;;5088923;28;20190;-62
2022/12/22 05:55:14;;;;;;;26.17;10.13;;;11.20;99.90;;;;;;5084611;28;20215;-61
2022/12/22 05:57:41;;;;;;;22.23;10.25;;;11.20;99.90;;;;;;5088714;28;20196;-62
2022/12/22 06:00:12;;;;;;;24.58;10.98;;;11.30;99.90;;;;;;5092302;28;20367;-62
2022/12/22 06:02:38;;;;;;;25.15;10.70;;;11.30;99.90;;;;;;5085357;28;20173;-62
2022/12/22 06:05:05;;;;;;;24.70;10.20;;;11.30;99.90;;;;;;5085701;28;20223;-63
2022/12/22 06:07:30;;;;;;;21.85;10.40;;;11.40;99.90;;;;;;5089805;28;20193;-63
2022/12/22 06:09:56;;;;;;;20.95;9.75;;;11.40;99.90;;;;;;5092092;28;20646;-63
2022/12/22 06:12:22;;;;;;;27.15;12.38;;;11.30;99.90;;;;;;5088334;28;20191;-65
2022/12/22 06:14:48;;;;;;;32.80;13.85;;;11.40;99.90;;;;;;5093043;28;20192;-63
2022/12/22 06:17:13;;;;;;;40.90;19.02;;;11.50;99.90;;;;;;5089291;28;20195;-65
2022/12/22 06:19:39;;;;;;;34.33;17.67;;;11.40;99.90;;;;;;5087372;28;20178;-62
2022/12/22 06:22:04;;;;;;;39.85;22.63;;;11.40;99.90;;;;;;5090962;28;20647;-62
2022/12/22 06:24:30;;;;;;;41.35;20.58;;;11.40;99.90;;;;;;5089030;28;20647;-62
2022/12/22 06:26:56;;;;;;;92.00;46.88;;;11.40;99.90;;;;;;5094035;28;20554;-64
2022/12/22 06:29:22;;;;;;;81.90;44.58;;;11.40;99.90;;;;;;5091848;28;20238;-68
2022/12/22 06:31:47;;;;;;;99.95;45.28;;;11.30;99.90;;;;;;5093200;28;20191;-68
2022/12/22 06:34:16;;;;;;;71.80;35.50;;;11.20;99.90;;;;;;5061465;28;20661;-62
2022/12/22 06:36:43;;;;;;;56.42;27.48;;;11.30;99.90;;;;;;5093067;28;20181;-63
2022/12/22 06:39:09;;;;;;;85.63;39.75;;;11.30;99.90;;;;;;5084507;28;20271;-63
2022/12/22 06:44:19;;;;;;;50.38;18.65;;;11.20;99.90;;;;;;5083992;28;20289;-62
2022/12/22 06:46:45;;;;;;;41.22;17.77;;;11.10;99.90;;;;;;5074891;28;20631;-62
2022/12/22 06:49:11;;;;;;;38.25;17.45;;;11.20;99.90;;;;;;5093199;28;20184;-61
2022/12/22 06:51:36;;;;;;;41.08;18.15;;;11.20;99.90;;;;;;5092982;28;20184;-60
2022/12/22 06:54:02;;;;;;;46.30;19.42;;;11.20;99.90;;;;;;5066378;28;20209;-61
2022/12/22 06:56:28;;;;;;;70.95;27.42;;;11.20;99.90;;;;;;5090214;28;20639;-63
2022/12/22 06:58:54;;;;;;;57.42;25.55;;;11.20;99.90;;;;;;5091534;28;20283;-61
2022/12/22 07:01:19;;;;;;;55.47;25.05;;;11.20;99.90;;;;;;5061097;28;20181;-61
2022/12/22 07:03:45;;;;;;;49.42;23.58;;;11.10;99.90;;;;;;5092220;28;20261;-61
2022/12/22 07:06:11;;;;;;;52.80;21.85;;;11.20;99.90;;;;;;5091088;28;20642;-62
2022/12/22 07:08:36;;;;;;;45.33;21.55;;;11.20;99.90;;;;;;5091801;28;20544;-61
2022/12/22 07:11:02;;;;;;;40.13;18.60;;;11.20;99.90;;;;;;5085352;28;20189;-60
2022/12/22 07:13:31;;;;;;;40.97;16.92;;;11.20;99.90;;;;;;5103429;28;20635;-62
2022/12/22 07:15:57;;;;;;;29.08;14.35;;;11.20;99.90;;;;;;5090201;28;20177;-62
2022/12/22 07:18:23;;;;;;;27.30;12.85;;;11.20;99.90;;;;;;5078732;28;20189;-62
2022/12/22 07:20:49;;;;;;;27.20;12.30;;;11.20;99.90;;;;;;5089632;28;20189;-62
2022/12/22 07:23:15;;;;;;;38.67;15.07;;;11.20;99.90;;;;;;5073648;28;20216;-61
2022/12/22 07:25:41;;;;;;;26.67;11.93;;;11.20;99.90;;;;;;5091470;28;20192;-61
2022/12/22 07:28:07;;;;;;;34.90;13.43;;;11.10;99.90;;;;;;5073587;28;20586;-62
2022/12/22 07:30:35;;;;;;;38.20;15.25;;;11.10;99.90;;;;;;5091275;28;20212;-64
2022/12/22 07:33:02;;;;;;;28.52;12.95;;;11.10;99.90;;;;;;5090178;28;20184;-64
2022/12/22 07:35:28;;;;;;;35.58;12.77;;;11.10;99.90;;;;;;5086739;28;20323;-63
2022/12/22 07:37:54;;;;;;;37.05;13.85;;;11.00;99.90;;;;;;5073977;28;20279;-63
2022/12/22 07:40:19;;;;;;;40.63;14.75;;;11.00;99.90;;;;;;5074907;28;20548;-62
2022/12/22 07:42:45;;;;;;;36.90;12.85;;;11.00;99.90;;;;;;5091805;28;20185;-62
2022/12/22 07:45:16;;;;;;;30.38;13.82;;;11.00;99.90;;;;;;5090402;28;20209;-62
2022/12/22 07:47:42;;;;;;;28.58;11.32;;;11.00;99.90;;;;;;5083441;28;20184;-62
2022/12/22 07:50:31;;;;;;;31.00;13.85;;;10.90;99.90;;;;;;5092115;28;20661;-62
2022/12/22 07:53:00;;;;;;;24.05;11.43;;;10.90;99.90;;;;;;5090943;28;20184;-63
2022/12/22 07:55:27;;;;;;;25.05;12.35;;;10.70;99.90;;;;;;5090297;28;20279;-64
2022/12/22 07:57:54;;;;;;;32.65;13.23;;;10.70;99.90;;;;;;5085651;28;20173;-61
2022/12/22 08:00:21;;;;;;;31.38;12.63;;;10.70;99.90;;;;;;5085809;28;20264;-62
2022/12/22 08:02:52;;;;;;;25.92;12.57;;;10.60;99.90;;;;;;5098199;28;20177;-64
2022/12/22 08:05:19;;;;;;;24.48;11.68;;;10.60;99.90;;;;;;5085412;28;20189;-63
2022/12/22 08:07:45;;;;;;;31.15;13.40;;;10.60;99.90;;;;;;5082031;28;20180;-63
2022/12/22 08:10:11;;;;;;;32.03;12.40;;;10.60;99.90;;;;;;5091126;28;20600;-62
2022/12/22 08:12:37;;;;;;;36.60;15.70;;;10.60;99.90;;;;;;5090531;28;20268;-61
2022/12/22 08:15:04;;;;;;;26.70;14.60;;;10.70;99.90;;;;;;5091351;28;20258;-61
2022/12/22 08:17:30;;;;;;;36.03;14.75;;;10.80;99.90;;;;;;5095575;28;20181;-63
2022/12/22 08:19:55;;;;;;;37.83;14.13;;;10.60;99.90;;;;;;5093253;28;20238;-62
2022/12/22 08:22:25;;;;;;;35.33;14.82;;;10.70;99.90;;;;;;5094345;28;20188;-61
2022/12/22 08:24:54;;;;;;;30.05;15.23;;;10.70;99.90;;;;;;5094006;28;20200;-61
2022/12/22 08:27:38;;;;;;;37.20;14.95;;;10.50;99.90;;;;;;5095881;28;20189;-62
2022/12/22 08:30:06;;;;;;;30.08;12.90;;;10.50;99.90;;;;;;5093587;28;20192;-62
2022/12/22 08:32:33;;;;;;;38.10;15.18;;;10.50;99.90;;;;;;5095125;28;20181;-63
2022/12/22 08:34:58;;;;;;;34.22;13.07;;;10.50;99.90;;;;;;5076767;28;20192;-61
2022/12/22 08:37:26;;;;;;;29.75;14.43;;;10.60;99.90;;;;;;5095114;28;20204;-62
2022/12/22 08:39:57;;;;;;;35.60;16.00;;;10.60;99.90;;;;;;5094923;28;20188;-62
2022/12/22 08:42:24;;;;;;;32.10;15.23;;;10.70;99.90;;;;;;5092712;28;20176;-61
2022/12/22 08:44:52;;;;;;;34.28;13.38;;;10.60;99.90;;;;;;5102253;28;20205;-62
2022/12/22 08:47:19;;;;;;;31.70;16.40;;;10.60;99.90;;;;;;5095041;28;20185;-63
2022/12/22 08:49:45;;;;;;;30.30;13.48;;;10.70;99.90;;;;;;5085634;28;20185;-63
2022/12/22 08:52:11;;;;;;;30.33;14.15;;;10.80;99.90;;;;;;5094832;28;20556;-63
2022/12/22 08:54:36;;;;;;;37.38;14.23;;;10.80;99.90;;;;;;5076755;28;20193;-63
2022/12/22 08:57:02;;;;;;;32.40;13.98;;;10.80;99.90;;;;;;5094741;28;20181;-63
2022/12/22 08:59:28;;;;;;;28.60;12.68;;;10.80;99.90;;;;;;5089417;28;20188;-62
2022/12/22 09:01:54;;;;;;;39.30;14.75;;;10.80;99.90;;;;;;5093945;28;20242;-63
2022/12/22 09:04:21;;;;;;;29.00;13.38;;;10.80;99.90;;;;;;5094635;28;20613;-63
2022/12/22 09:06:47;;;;;;;33.70;14.75;;;10.80;99.90;;;;;;5091202;28;20182;-62
2022/12/22 09:09:14;;;;;;;30.23;12.60;;;10.70;99.90;;;;;;5094486;28;20185;-62
2022/12/22 09:11:40;;;;;;;37.10;13.93;;;10.60;99.90;;;;;;5090332;28;20181;-62
2022/12/22 09:14:08;;;;;;;29.65;14.55;;;10.60;99.90;;;;;;5084025;28;20241;-62
2022/12/22 09:16:34;;;;;;;29.23;13.55;;;10.80;99.90;;;;;;5094002;28;20188;-63
2022/12/22 09:19:00;;;;;;;33.95;13.35;;;10.80;99.90;;;;;;5082808;28;20515;-63
2022/12/22 09:21:27;;;;;;;31.55;13.57;;;10.90;99.90;;;;;;5080954;28;20655;-62
2022/12/22 09:23:54;;;;;;;29.15;12.63;;;10.90;99.90;;;;;;5093251;28;20212;-62
2022/12/22 09:26:22;;;;;;;24.10;12.13;;;10.80;99.90;;;;;;5085569;28;20211;-63
2022/12/22 09:28:48;;;;;;;32.90;12.98;;;10.80;99.90;;;;;;5094542;28;20711;-62
2022/12/22 09:31:14;;;;;;;24.95;11.45;;;10.90;99.90;;;;;;5090696;28;20207;-62
2022/12/22 09:33:40;;;;;;;38.80;12.20;;;11.10;99.90;;;;;;5094114;28;20765;-63
2022/12/22 09:36:11;;;;;;;28.38;10.85;;;11.20;99.90;;;;;;5090024;28;20185;-63
2022/12/22 09:38:38;;;;;;;30.05;12.57;;;11.40;99.90;;;;;;5094870;28;20181;-63
2022/12/22 09:41:18;;;;;;;23.63;12.23;;;11.40;99.90;;;;;;5093014;28;20196;-62
2022/12/22 09:43:43;;;;;;;18.38;9.88;;;11.40;99.90;;;;;;5093513;28;20203;-63
2022/12/22 09:46:31;;;;;;;27.80;11.10;;;11.50;99.90;;;;;;5087194;28;20180;-63
2022/12/22 09:48:57;;;;;;;18.77;7.82;;;11.40;99.90;;;;;;5090595;28;20184;-63
2022/12/22 09:51:23;;;;;;;29.75;11.48;;;11.50;99.90;;;;;;5089317;28;20188;-63
2022/12/22 09:53:53;;;;;;;24.67;10.70;;;11.50;99.90;;;;;;5092069;28;20197;-63
2022/12/22 09:56:19;;;;;;;19.20;10.63;;;11.50;99.90;;;;;;5093788;28;20192;-62
2022/12/22 09:58:46;;;;;;;17.88;9.68;;;11.50;99.90;;;;;;5094036;28;20310;-62
2022/12/22 10:01:34;;;;;;;22.38;10.07;;;11.40;99.90;;;;;;5092394;28;20192;-63
2022/12/22 10:04:10;;;;;;;19.08;9.57;;;11.40;99.90;;;;;;5084609;28;20567;-63
2022/12/22 10:06:42;;;;;;;15.55;9.43;;;11.50;99.90;;;;;;5084720;28;20183;-63
2022/12/22 10:09:23;;;;;;;19.13;10.57;;;11.60;99.90;;;;;;5091897;28;20203;-63
2022/12/22 10:12:00;;;;;;;17.17;9.63;;;11.50;99.90;;;;;;5091230;28;20221;-63
2022/12/22 10:14:40;;;;;;;26.63;10.48;;;11.50;99.90;;;;;;5094098;28;20263;-63
2022/12/22 10:17:23;;;;;;;25.73;11.60;;;11.40;99.90;;;;;;5092858;28;20184;-63
2022/12/22 10:19:52;;;;;;;20.77;11.80;;;11.50;99.90;;;;;;5088781;28;20211;-64
2022/12/22 10:22:30;;;;;;;26.65;12.70;;;11.50;99.90;;;;;;5087060;28;20553;-63
2022/12/22 10:24:59;;;;;;;26.30;13.77;;;11.50;99.90;;;;;;5085246;28;20217;-63
2022/12/22 10:27:30;;;;;;;28.23;15.38;;;11.60;99.90;;;;;;5092672;28;20189;-63
2022/12/22 10:30:17;;;;;;;33.47;15.68;;;11.70;99.90;;;;;;5092072;28;20161;-63
2022/12/22 10:33:04;;;;;;;35.65;17.02;;;11.60;99.90;;;;;;5091061;28;20263;-63
2022/12/22 10:35:47;;;;;;;30.73;13.73;;;11.50;99.90;;;;;;5086086;28;20204;-63
2022/12/22 10:38:47;;;;;;;34.30;16.90;;;11.40;99.90;;;;;;5091888;28;20270;-63
2022/12/22 10:41:16;;;;;;;26.73;14.95;;;11.20;99.90;;;;;;5082193;28;20707;-63
2022/12/22 10:43:55;;;;;;;28.60;13.85;;;11.20;99.90;;;;;;5091390;28;20197;-63
2022/12/22 10:46:31;;;;;;;24.40;13.20;;;11.00;99.90;;;;;;5092965;28;20185;-62
2022/12/22 10:49:14;;;;;;;26.45;13.05;;;11.10;99.90;;;;;;5096928;28;20647;-62
2022/12/22 10:51:41;;;;;;;18.75;10.98;;;11.20;99.90;;;;;;5086563;28;20185;-62
2022/12/22 10:54:07;;;;;;;29.15;13.07;;;11.10;99.90;;;;;;5092686;28;20188;-63
2022/12/22 10:56:34;;;;;;;22.30;12.25;;;11.10;99.90;;;;;;5091055;28;20650;-63
2022/12/22 10:59:10;;;;;;;17.30;10.65;;;11.10;99.90;;;;;;5085432;28;20283;-63
2022/12/22 11:01:36;;;;;;;17.58;11.40;;;11.20;99.90;;;;;;5090863;28;20219;-63
2022/12/22 11:04:24;;;;;;;16.27;9.65;;;11.30;99.90;;;;;;5084573;28;20209;-62
2022/12/22 11:06:52;;;;;;;13.13;7.72;;;11.40;99.90;;;;;;5090870;28;20264;-62
2022/12/22 11:09:18;;;;;;;15.30;8.90;;;11.20;99.90;;;;;;5091453;28;20242;-62
2022/12/22 11:11:55;;;;;;;14.68;8.40;;;11.20;99.90;;;;;;5090437;28;20589;-62
2022/12/22 11:14:51;;;;;;;12.82;6.68;;;11.30;99.90;;;;;;5091995;28;20242;-63
2022/12/22 11:17:41;;;;;;;11.85;7.05;;;11.30;99.90;;;;;;5081143;28;20640;-63
2022/12/22 11:20:39;;;;;;;15.68;6.68;;;11.20;99.90;;;;;;5076509;28;20177;-63
2022/12/22 11:23:42;;;;;;;11.95;6.95;;;11.20;99.90;;;;;;5084982;28;20188;-63
2022/12/22 11:26:14;;;;;;;9.48;6.75;;;11.20;99.90;;;;;;5089676;28;20192;-63
2022/12/22 11:29:15;;;;;;;13.07;7.22;;;11.40;99.90;;;;;;5090516;28;20192;-63
2022/12/22 11:32:08;;;;;;;10.98;6.25;;;11.50;99.90;;;;;;5062123;28;20553;-63
2022/12/22 11:34:49;;;;;;;12.02;7.25;;;11.70;99.90;;;;;;5081765;28;20180;-63
2022/12/22 11:37:39;;;;;;;9.80;6.90;;;11.80;99.90;;;;;;5089071;28;20218;-63
2022/12/22 11:40:16;;;;;;;8.90;6.32;;;11.70;99.90;;;;;;5088157;28;20217;-63
2022/12/22 11:42:53;;;;;;;11.77;7.45;;;11.60;99.90;;;;;;5088147;28;20184;-62
2022/12/22 11:45:19;;;;;;;8.30;5.80;;;11.60;99.90;;;;;;5084424;28;20708;-63
2022/12/22 11:48:07;;;;;;;10.88;7.30;;;11.40;99.90;;;;;;5087155;28;20208;-62
2022/12/22 11:50:49;;;;;;;11.90;6.93;;;11.50;99.90;;;;;;5096182;28;20172;-62
2022/12/22 11:53:47;;;;;;;7.47;6.43;;;11.80;99.90;;;;;;5096176;28;20189;-62
2022/12/22 11:56:37;;;;;;;6.20;5.38;;;11.80;99.90;;;;;;5088085;28;20185;-62
2022/12/22 11:59:21;;;;;;;9.20;6.65;;;11.70;99.90;;;;;;5088017;28;20179;-62
2022/12/22 12:01:59;;;;;;;7.35;5.90;;;11.70;99.90;;;;;;5089192;28;20176;-62
2022/12/22 12:04:43;;;;;;;6.53;5.45;;;11.80;99.90;;;;;;5083289;28;20205;-62
2022/12/22 12:07:15;;;;;;;9.93;5.82;;;11.70;99.90;;;;;;5086666;28;20211;-62
2022/12/22 12:10:01;;;;;;;7.47;5.53;;;11.70;99.90;;;;;;5095441;28;20181;-63
2022/12/22 12:12:51;;;;;;;7.88;5.63;;;11.50;99.90;;;;;;5092418;28;20199;-62
2022/12/22 12:15:31;;;;;;;11.40;5.80;;;11.50;99.90;;;;;;5094151;28;20212;-62
2022/12/22 12:18:10;;;;;;;7.47;3.97;;;11.50;99.90;;;;;;5091985;28;20184;-62
2022/12/22 12:20:44;;;;;;;7.78;6.05;;;11.60;99.90;;;;;;5076571;28;20647;-63
2022/12/22 12:23:28;;;;;;;6.85;5.25;;;11.60;99.90;;;;;;5090222;28;20200;-62
2022/12/22 12:26:15;;;;;;;6.90;4.53;;;11.60;99.90;;;;;;5094986;28;20190;-63
2022/12/22 12:28:44;;;;;;;5.60;5.00;;;11.60;99.90;;;;;;5105293;28;20658;-63
2022/12/22 12:31:13;;;;;;;8.10;4.85;;;11.70;99.90;;;;;;5089551;28;20181;-63
2022/12/22 12:33:47;;;;;;;6.68;4.93;;;11.80;99.90;;;;;;5089491;28;20326;-62
2022/12/22 12:36:31;;;;;;;6.35;4.90;;;11.70;99.90;;;;;;5076462;28;20188;-63
2022/12/22 12:39:29;;;;;;;7.65;4.70;;;11.70;99.90;;;;;;5095857;28;20180;-62
2022/12/22 12:42:29;;;;;;;9.05;5.03;;;11.50;99.90;;;;;;5056321;28;20201;-63
2022/12/22 12:44:55;;;;;;;8.77;5.57;;;11.50;99.90;;;;;;5088989;28;20280;-62
2022/12/22 12:47:21;;;;;;;6.53;4.63;;;11.60;99.90;;;;;;5094875;28;20624;-62
2022/12/22 12:50:03;;;;;;;10.13;4.53;;;11.60;99.90;;;;;;5094969;28;20177;-62
2022/12/22 12:52:38;;;;;;;11.98;4.60;;;11.60;99.90;;;;;;5074830;28;20250;-62
2022/12/22 12:55:39;;;;;;;5.47;4.00;;;11.70;99.90;;;;;;5090689;28;20184;-63
2022/12/22 12:58:09;;;;;;;5.50;4.85;;;11.70;99.90;;;;;;5061971;28;20192;-63
2022/12/22 13:00:35;;;;;;;7.13;4.32;;;11.80;99.90;;;;;;5085499;28;20278;-62
2022/12/22 13:03:10;;;;;;;13.48;6.85;;;11.70;99.90;;;;;;5094642;28;20646;-63
2022/12/22 13:05:51;;;;;;;8.48;6.35;;;11.70;99.90;;;;;;5084586;28;20265;-63
2022/12/22 13:08:18;;;;;;;7.85;5.38;;;11.60;99.90;;;;;;5097221;28;20277;-62
2022/12/22 13:10:54;;;;;;;9.90;6.45;;;11.60;99.90;;;;;;5088858;28;20183;-62
2022/12/22 13:13:22;;;;;;;7.57;4.93;;;11.50;99.90;;;;;;5094252;28;20185;-62
2022/12/22 13:15:48;;;;;;;13.68;6.53;;;11.40;99.90;;;;;;5095138;28;20326;-62
2022/12/22 13:18:27;;;;;;;6.32;4.63;;;11.50;99.90;;;;;;5090861;28;20272;-62
2022/12/22 13:21:26;;;;;;;6.60;4.85;;;11.30;99.90;;;;;;5082418;28;20188;-62
2022/12/22 13:23:54;;;;;;;4.50;4.10;;;11.10;99.90;;;;;;5091132;28;20204;-62
2022/12/22 13:26:33;;;;;;;9.35;5.03;;;11.00;99.90;;;;;;5089860;28;20185;-62
2022/12/22 13:29:08;;;;;;;7.80;5.32;;;11.00;99.90;;;;;;5094782;28;20182;-63
2022/12/22 13:31:46;;;;;;;5.07;4.57;;;11.10;99.90;;;;;;5086305;28;20180;-62
2022/12/22 13:34:38;;;;;;;6.22;4.18;;;11.10;99.90;;;;;;5091895;28;20241;-60
2022/12/22 13:37:15;;;;;;;9.23;4.78;;;11.00;99.90;;;;;;5090133;28;20180;-61
2022/12/22 13:39:41;;;;;;;5.90;3.95;;;11.00;99.90;;;;;;5086355;28;20220;-62
2022/12/22 13:42:10;;;;;;;6.93;4.20;;;11.00;99.90;;;;;;5092739;28;20234;-62
2022/12/22 13:44:37;;;;;;;7.47;4.80;;;10.90;99.90;;;;;;5092646;28;20622;-62
2022/12/22 13:47:06;;;;;;;4.75;3.88;;;10.90;99.90;;;;;;5092608;28;20192;-62
2022/12/22 13:49:33;;;;;;;6.78;4.57;;;10.90;99.90;;;;;;5089259;28;20197;-62
2022/12/22 13:52:00;;;;;;;6.35;4.85;;;10.90;99.90;;;;;;5091841;28;20218;-60
2022/12/22 13:54:31;;;;;;;5.43;4.88;;;10.90;99.90;;;;;;5090658;28;20268;-62
2022/12/22 13:56:59;;;;;;;8.90;4.68;;;10.90;99.90;;;;;;5094168;28;20220;-60
2022/12/22 13:59:28;;;;;;;7.18;4.80;;;11.00;99.90;;;;;;5093606;28;20245;-63
2022/12/22 14:02:08;;;;;;;8.30;4.68;;;11.00;99.90;;;;;;5094109;28;20193;-61
2022/12/22 14:04:35;;;;;;;9.70;5.57;;;11.10;99.90;;;;;;5093057;28;20226;-60
2022/12/22 14:07:15;;;;;;;7.35;5.93;;;11.20;99.90;;;;;;5090466;28;20666;-60
2022/12/22 14:09:53;;;;;;;9.75;5.78;;;11.20;99.90;;;;;;5091792;28;20199;-61
2022/12/22 14:12:21;;;;;;;9.82;6.57;;;11.30;99.90;;;;;;5092345;28;20191;-63
2022/12/22 14:14:49;;;;;;;9.32;6.43;;;11.30;99.90;;;;;;5093107;28;20241;-63
2022/12/22 14:17:24;;;;;;;15.60;8.18;;;11.30;99.90;;;;;;5075893;28;20185;-62
2022/12/22 14:19:54;;;;;;;10.60;6.60;;;11.30;99.90;;;;;;5090984;28;20180;-62
2022/12/22 14:22:31;;;;;;;10.10;6.13;;;11.30;99.90;;;;;;5080851;28;20211;-62
2022/12/22 14:25:25;;;;;;;15.43;7.95;;;11.40;99.90;;;;;;5092733;28;20303;-61
2022/12/22 14:27:54;;;;;;;16.92;7.40;;;11.40;99.90;;;;;;5085724;28;20231;-61
2022/12/22 14:30:27;;;;;;;15.13;6.90;;;11.40;99.90;;;;;;5093539;28;20187;-61
2022/12/22 14:32:55;;;;;;;14.98;7.47;;;11.40;99.90;;;;;;5090196;28;20238;-62
2022/12/22 14:35:20;;;;;;;11.63;7.35;;;11.50;99.90;;;;;;5093728;28;20245;-61
2022/12/22 14:38:15;;;;;;;18.45;8.52;;;11.50;99.90;;;;;;5089599;28;20192;-62
2022/12/22 14:40:42;;;;;;;12.80;7.03;;;11.50;99.90;;;;;;5077607;28;20539;-62
2022/12/22 14:43:17;;;;;;;14.10;5.80;;;11.50;99.90;;;;;;5077297;28;20209;-62
2022/12/22 14:45:45;;;;;;;9.68;6.47;;;11.40;99.90;;;;;;5093566;28;20548;-63
2022/12/22 14:48:23;;;;;;;11.50;7.47;;;11.40;99.90;;;;;;5092548;28;20207;-63
2022/12/22 14:50:50;;;;;;;9.32;6.10;;;11.50;99.90;;;;;;5092242;28;20180;-63
2022/12/22 14:53:24;;;;;;;11.85;6.43;;;11.60;99.90;;;;;;5077759;28;20557;-63
2022/12/22 14:55:51;;;;;;;10.27;5.82;;;11.60;99.90;;;;;;5091664;28;20187;-62
2022/12/22 14:58:33;;;;;;;15.88;6.80;;;11.70;99.90;;;;;;5091778;28;20538;-64
2022/12/22 15:01:19;;;;;;;13.27;6.32;;;11.70;99.90;;;;;;5087281;28;20214;-63
2022/12/22 15:04:05;;;;;;;14.23;6.10;;;11.80;99.90;;;;;;5088632;28;20204;-63
2022/12/22 15:06:34;;;;;;;13.68;6.70;;;11.70;99.90;;;;;;5086494;28;20649;-63
2022/12/22 15:09:12;;;;;;;19.23;7.88;;;11.60;99.90;;;;;;5092091;28;20191;-63
2022/12/22 15:11:45;;;;;;;12.20;6.18;;;11.70;99.90;;;;;;5077239;28;20188;-63
2022/12/22 15:14:17;;;;;;;26.45;9.48;;;11.70;99.90;;;;;;5090544;28;20204;-63
2022/12/22 15:16:44;;;;;;;21.30;8.68;;;11.70;99.90;;;;;;5093136;28;20181;-63
2022/12/22 15:19:21;;;;;;;15.07;6.40;;;11.80;99.90;;;;;;5107121;28;20173;-63
2022/12/22 15:21:47;;;;;;;19.83;8.13;;;11.80;99.90;;;;;;5091515;28;20639;-63
2022/12/22 15:24:15;;;;;;;16.35;6.00;;;11.80;99.90;;;;;;5084326;28;20208;-63
2022/12/22 15:26:43;;;;;;;15.25;6.65;;;11.80;99.90;;;;;;5089975;28;20196;-62
2022/12/22 15:29:09;;;;;;;15.32;5.70;;;11.80;99.90;;;;;;5092807;28;20188;-61
2022/12/22 15:31:35;;;;;;;19.65;5.20;;;11.80;99.90;;;;;;5083938;28;20193;-61
2022/12/22 15:34:03;;;;;;;18.77;6.00;;;11.80;99.90;;;;;;5077305;28;20200;-61
2022/12/22 15:36:29;;;;;;;16.27;6.75;;;11.80;99.90;;;;;;5087342;28;20181;-61
2022/12/22 15:38:55;;;;;;;19.10;5.47;;;11.90;99.90;;;;;;5089327;28;20238;-61
2022/12/22 15:41:20;;;;;;;41.67;10.45;;;11.90;99.90;;;;;;5091736;28;20293;-64
2022/12/22 15:43:46;;;;;;;24.38;8.02;;;11.90;99.90;;;;;;5090332;28;20240;-62
2022/12/22 15:46:17;;;;;;;17.63;6.25;;;11.90;99.90;;;;;;5091180;28;20189;-62
2022/12/22 15:48:45;;;;;;;19.80;5.82;;;11.90;99.90;;;;;;5092023;28;20176;-61
2022/12/22 15:51:20;;;;;;;14.02;5.78;;;11.90;99.90;;;;;;5090518;28;20197;-62
2022/12/22 15:53:46;;;;;;;21.50;5.22;;;11.90;99.90;;;;;;5087508;28;20206;-62
2022/12/22 15:56:19;;;;;;;20.00;6.15;;;11.90;99.90;;;;;;5081622;28;20185;-63
2022/12/22 15:58:45;;;;;;;20.58;5.65;;;11.90;99.90;;;;;;5090975;28;20276;-61
2022/12/22 16:01:11;;;;;;;22.63;7.82;;;12.00;99.90;;;;;;5085749;28;20185;-61
2022/12/22 16:03:37;;;;;;;29.05;6.45;;;11.90;99.90;;;;;;5089892;28;20212;-61
2022/12/22 16:06:04;;;;;;;14.23;5.68;;;11.90;99.90;;;;;;5091283;28;20260;-60
2022/12/22 16:08:35;;;;;;;28.60;5.68;;;11.90;99.90;;;;;;5090590;28;20221;-62
2022/12/22 16:11:02;;;;;;;29.95;6.32;;;12.00;99.90;;;;;;5091989;28;20189;-61
2022/12/22 16:13:28;;;;;;;25.20;8.63;;;12.00;99.90;;;;;;5076027;28;20204;-61
2022/12/22 16:15:54;;;;;;;28.60;6.75;;;12.00;99.90;;;;;;5082199;28;20658;-63
2022/12/22 16:18:19;;;;;;;24.88;6.63;;;11.90;99.90;;;;;;5090797;28;20177;-62
2022/12/22 16:20:48;;;;;;;30.42;6.68;;;11.90;99.90;;;;;;5055615;28;20186;-63
2022/12/22 16:23:21;;;;;;;26.85;6.18;;;11.90;99.90;;;;;;5086049;28;20215;-62
2022/12/22 16:25:47;;;;;;;18.23;5.55;;;11.80;99.90;;;;;;5091886;28;20651;-61
2022/12/22 16:28:22;;;;;;;26.73;5.75;;;11.90;99.90;;;;;;5091528;28;20181;-62
2022/12/22 16:30:48;;;;;;;19.25;6.07;;;11.90;99.90;;;;;;5090784;28;20176;-61
2022/12/22 16:33:14;;;;;;;21.33;5.93;;;11.90;99.90;;;;;;5097117;28;20235;-61